Current Weather

Arar

Arar, Saudi Arabia (OERR)

Report from: Tuesday, August 16, 2022 10:00 AM +03
Current time: Tuesday, August 16, 2022 10:32 AM +03

Nearby weather
Weather history
Weather forecast

Temperature34.0°C (93.2°F)
Heat index31.6°C (88.9°F)
Dew point4.0°C (39.2°F)
Winds 10 kts (5.1 m/s, 11.5 mph) East-Northeast (60°)
Clouds Sky clear
Altimeter29.80 in.Hg (1009 mB)
Relative humidity15 %
Density altitude2,426 ft. (739 m)
Remarks Ceiling and visibility OK
No significant changes expected in the next two hours
Flight conditions Visual Meteorological Conditions
Raw dataOERR 160700Z 06010KT CAVOK 34/04 Q1009 NOSIG
An error has occurred. This application may no longer respond until reloaded. Reload 🗙